Terminal Aerodrome Forecast
Issued by NWS Charleston, WV

Current Version | Previous Version | Text Only | Print | Product List | Glossary Off
Versions: 1 2 3 4 5 6 7 8 9 10 11 12 13 14 15 16 17 18 19 20 21 22 23

647
FTUS41 KRLX 172104 AAB
TAFCRW
TAF AMD
KCRW 172104Z 1721/1818 15003KT 2SM -RA BR OVC008
     FM180000 18003KT 3SM -RA BR OVC008
     FM180400 26003KT P6SM OVC008
     FM180700 26007KT P6SM BKN010=

USA.gov is the U.S. government's official web portal to all federal, state and local government web resources and services.